KAZO/AZO METAR and TAF weather

Enter ICAO airport designator
Station Type Date Time Source
KAZO METAR 2019/10/18 05:53 UTC NOAA

KAZO 180553Z AUTO 00000KT 10SM CLR 04/01 A3003 RMK AO2 SLP175 T00440006 10089 20044 55001


Station Type Date Time Source
KAZO Decoded METAR 2019/10/18 05:53 UTC NOAA

KALAMAZOO/BATTLE CREEK AIRPORT, MI, United States (KAZO) 42-14N 085-33W 272M
Oct 18, 2019 - 01:53 AM EDT / 2019.10.18 0553 UTC
Wind: Calm:0
Visibility: 10 mile(s):0
Sky conditions: clear
Temperature: 39.9 F (4.4 C)
Dew Point: 33.1 F (0.6 C)
Relative Humidity: 76%
Pressure (altimeter): 30.03 in. Hg (1016 hPa)
Pressure tendency: 0.00 inches (0.1 hPa) lower than three hours ago
ob: KAZO 180553Z AUTO 00000KT 10SM CLR 04/01 A3003 RMK AO2 SLP175 T00440006 10089 20044 55001
cycle: 6

Station Type Date Time Source
KAZO TAF 2019/10/18 06:22 UTC NOAA

TAF KAZO 180520Z 1806/1906 VRB03KT P6SM SKC
FM181600 16005KT P6SM FEW250

Example: see airport list